sensor_id;sensor_type;location;lat;lon;timestamp;P1;durP1;ratioP1;P2;durP2;ratioP2
76127;SDS011;64873;50.102;14.434;2023-05-07T00:00:16;18.95;;;11.07;;
76127;SDS011;64873;50.102;14.434;2023-05-07T00:02:43;19.50;;;11.40;;
76127;SDS011;64873;50.102;14.434;2023-05-07T00:05:09;20.40;;;12.02;;
76127;SDS011;64873;50.102;14.434;2023-05-07T00:07:35;19.88;;;11.82;;
76127;SDS011;64873;50.102;14.434;2023-05-07T00:10:01;17.95;;;11.18;;
76127;SDS011;64873;50.102;14.434;2023-05-07T00:12:26;18.55;;;11.57;;
76127;SDS011;64873;50.102;14.434;2023-05-07T00:14:52;18.90;;;11.32;;
76127;SDS011;64873;50.102;14.434;2023-05-07T00:17:17;20.05;;;11.25;;
76127;SDS011;64873;50.102;14.434;2023-05-07T00:19:43;23.42;;;12.52;;
76127;SDS011;64873;50.102;14.434;2023-05-07T00:22:08;20.30;;;11.45;;
76127;SDS011;64873;50.102;14.434;2023-05-07T00:24:33;19.15;;;11.45;;
76127;SDS011;64873;50.102;14.434;2023-05-07T00:26:59;17.08;;;11.13;;
76127;SDS011;64873;50.102;14.434;2023-05-07T00:29:25;19.92;;;12.00;;
76127;SDS011;64873;50.102;14.434;2023-05-07T00:31:50;20.33;;;12.60;;
76127;SDS011;64873;50.102;14.434;2023-05-07T00:34:16;20.17;;;11.63;;
76127;SDS011;64873;50.102;14.434;2023-05-07T00:36:41;22.40;;;13.48;;
76127;SDS011;64873;50.102;14.434;2023-05-07T00:39:07;20.70;;;12.57;;
76127;SDS011;64873;50.102;14.434;2023-05-07T00:41:32;20.98;;;12.50;;
76127;SDS011;64873;50.102;14.434;2023-05-07T00:43:57;23.55;;;12.85;;
76127;SDS011;64873;50.102;14.434;2023-05-07T00:46:23;20.98;;;11.00;;
76127;SDS011;64873;50.102;14.434;2023-05-07T00:48:51;20.15;;;11.63;;
76127;SDS011;64873;50.102;14.434;2023-05-07T00:51:18;22.25;;;12.68;;
76127;SDS011;64873;50.102;14.434;2023-05-07T00:53:44;21.42;;;11.68;;
76127;SDS011;64873;50.102;14.434;2023-05-07T00:56:10;21.05;;;13.57;;
76127;SDS011;64873;50.102;14.434;2023-05-07T00:58:36;21.85;;;12.75;;
76127;SDS011;64873;50.102;14.434;2023-05-07T01:01:02;20.00;;;12.05;;
76127;SDS011;64873;50.102;14.434;2023-05-07T01:03:28;18.52;;;11.65;;
76127;SDS011;64873;50.102;14.434;2023-05-07T01:05:53;18.90;;;10.75;;
76127;SDS011;64873;50.102;14.434;2023-05-07T01:08:20;18.00;;;11.50;;
76127;SDS011;64873;50.102;14.434;2023-05-07T01:10:47;17.65;;;10.93;;
76127;SDS011;64873;50.102;14.434;2023-05-07T01:13:13;23.42;;;11.75;;
76127;SDS011;64873;50.102;14.434;2023-05-07T01:15:40;20.92;;;10.55;;
76127;SDS011;64873;50.102;14.434;2023-05-07T01:18:06;14.52;;;9.48;;
76127;SDS011;64873;50.102;14.434;2023-05-07T01:20:32;15.38;;;8.73;;
76127;SDS011;64873;50.102;14.434;2023-05-07T01:22:58;16.20;;;9.35;;
76127;SDS011;64873;50.102;14.434;2023-05-07T01:25:25;15.55;;;9.40;;
76127;SDS011;64873;50.102;14.434;2023-05-07T01:27:51;15.05;;;9.93;;
76127;SDS011;64873;50.102;14.434;2023-05-07T01:30:16;15.57;;;9.88;;
76127;SDS011;64873;50.102;14.434;2023-05-07T01:32:50;16.48;;;9.43;;
76127;SDS011;64873;50.102;14.434;2023-05-07T01:35:22;12.43;;;7.95;;
76127;SDS011;64873;50.102;14.434;2023-05-07T01:37:52;16.63;;;9.18;;
76127;SDS011;64873;50.102;14.434;2023-05-07T01:40:18;15.98;;;8.88;;
76127;SDS011;64873;50.102;14.434;2023-05-07T01:42:43;17.98;;;8.98;;
76127;SDS011;64873;50.102;14.434;2023-05-07T01:45:10;18.88;;;9.65;;
76127;SDS011;64873;50.102;14.434;2023-05-07T01:47:37;15.40;;;8.98;;
76127;SDS011;64873;50.102;14.434;2023-05-07T01:50:03;16.80;;;9.65;;
76127;SDS011;64873;50.102;14.434;2023-05-07T01:52:31;13.77;;;8.80;;
76127;SDS011;64873;50.102;14.434;2023-05-07T01:54:56;13.98;;;8.63;;
76127;SDS011;64873;50.102;14.434;2023-05-07T01:57:22;17.73;;;9.35;;
76127;SDS011;64873;50.102;14.434;2023-05-07T01:59:47;13.07;;;8.75;;
76127;SDS011;64873;50.102;14.434;2023-05-07T02:02:13;16.90;;;7.90;;
76127;SDS011;64873;50.102;14.434;2023-05-07T02:04:38;13.25;;;8.40;;
76127;SDS011;64873;50.102;14.434;2023-05-07T02:07:03;13.30;;;7.07;;
76127;SDS011;64873;50.102;14.434;2023-05-07T02:09:29;15.43;;;9.23;;
76127;SDS011;64873;50.102;14.434;2023-05-07T02:11:55;13.85;;;8.68;;
76127;SDS011;64873;50.102;14.434;2023-05-07T02:14:20;13.23;;;7.75;;
76127;SDS011;64873;50.102;14.434;2023-05-07T02:16:45;12.20;;;7.72;;
76127;SDS011;64873;50.102;14.434;2023-05-07T02:19:11;13.43;;;7.97;;
76127;SDS011;64873;50.102;14.434;2023-05-07T02:21:36;12.32;;;7.97;;
76127;SDS011;64873;50.102;14.434;2023-05-07T02:24:02;15.68;;;8.13;;
76127;SDS011;64873;50.102;14.434;2023-05-07T02:26:27;13.25;;;7.55;;
76127;SDS011;64873;50.102;14.434;2023-05-07T02:28:52;13.68;;;7.82;;
76127;SDS011;64873;50.102;14.434;2023-05-07T02:31:18;11.43;;;6.88;;
76127;SDS011;64873;50.102;14.434;2023-05-07T02:33:44;11.27;;;7.00;;
76127;SDS011;64873;50.102;14.434;2023-05-07T02:36:11;12.52;;;8.10;;
76127;SDS011;64873;50.102;14.434;2023-05-07T02:38:37;13.13;;;7.43;;
76127;SDS011;64873;50.102;14.434;2023-05-07T02:41:02;11.57;;;7.32;;
76127;SDS011;64873;50.102;14.434;2023-05-07T02:43:28;13.70;;;7.88;;
76127;SDS011;64873;50.102;14.434;2023-05-07T02:46:00;15.25;;;7.95;;
76127;SDS011;64873;50.102;14.434;2023-05-07T02:48:28;14.73;;;9.13;;
76127;SDS011;64873;50.102;14.434;2023-05-07T02:50:53;16.05;;;8.90;;
76127;SDS011;64873;50.102;14.434;2023-05-07T02:53:19;14.60;;;8.43;;
76127;SDS011;64873;50.102;14.434;2023-05-07T02:55:44;15.20;;;8.13;;
76127;SDS011;64873;50.102;14.434;2023-05-07T02:58:10;14.10;;;8.68;;
76127;SDS011;64873;50.102;14.434;2023-05-07T03:00:35;12.73;;;8.13;;
76127;SDS011;64873;50.102;14.434;2023-05-07T03:03:01;14.15;;;7.80;;
76127;SDS011;64873;50.102;14.434;2023-05-07T03:05:26;14.45;;;8.18;;
76127;SDS011;64873;50.102;14.434;2023-05-07T03:07:51;13.88;;;8.30;;
76127;SDS011;64873;50.102;14.434;2023-05-07T03:10:17;14.68;;;8.75;;
76127;SDS011;64873;50.102;14.434;2023-05-07T03:12:43;14.38;;;8.82;;
76127;SDS011;64873;50.102;14.434;2023-05-07T03:15:09;14.65;;;8.63;;
76127;SDS011;64873;50.102;14.434;2023-05-07T03:17:35;13.50;;;8.00;;
76127;SDS011;64873;50.102;14.434;2023-05-07T03:20:01;13.98;;;8.52;;
76127;SDS011;64873;50.102;14.434;2023-05-07T03:22:26;15.13;;;9.18;;
76127;SDS011;64873;50.102;14.434;2023-05-07T03:24:52;16.00;;;9.63;;
76127;SDS011;64873;50.102;14.434;2023-05-07T03:27:17;13.88;;;9.25;;
76127;SDS011;64873;50.102;14.434;2023-05-07T03:29:42;14.25;;;9.18;;
76127;SDS011;64873;50.102;14.434;2023-05-07T03:32:08;14.20;;;8.82;;
76127;SDS011;64873;50.102;14.434;2023-05-07T03:34:33;14.40;;;9.20;;
76127;SDS011;64873;50.102;14.434;2023-05-07T03:36:58;18.27;;;10.35;;
76127;SDS011;64873;50.102;14.434;2023-05-07T03:39:24;15.85;;;9.10;;
76127;SDS011;64873;50.102;14.434;2023-05-07T03:41:50;14.07;;;8.45;;
76127;SDS011;64873;50.102;14.434;2023-05-07T03:44:15;15.07;;;9.32;;
76127;SDS011;64873;50.102;14.434;2023-05-07T03:46:40;14.20;;;8.35;;
76127;SDS011;64873;50.102;14.434;2023-05-07T03:49:11;17.58;;;9.80;;
76127;SDS011;64873;50.102;14.434;2023-05-07T03:51:37;15.38;;;8.93;;
76127;SDS011;64873;50.102;14.434;2023-05-07T03:54:02;16.52;;;9.82;;
76127;SDS011;64873;50.102;14.434;2023-05-07T03:56:28;16.30;;;8.80;;
76127;SDS011;64873;50.102;14.434;2023-05-07T03:58:59;17.33;;;9.55;;
76127;SDS011;64873;50.102;14.434;2023-05-07T04:01:25;13.90;;;9.23;;
76127;SDS011;64873;50.102;14.434;2023-05-07T04:03:51;13.43;;;7.40;;
76127;SDS011;64873;50.102;14.434;2023-05-07T04:06:16;13.00;;;8.07;;
76127;SDS011;64873;50.102;14.434;2023-05-07T04:08:44;12.65;;;7.57;;
76127;SDS011;64873;50.102;14.434;2023-05-07T04:11:10;11.55;;;7.22;;
76127;SDS011;64873;50.102;14.434;2023-05-07T04:13:36;10.85;;;6.57;;
76127;SDS011;64873;50.102;14.434;2023-05-07T04:16:02;10.80;;;6.00;;
76127;SDS011;64873;50.102;14.434;2023-05-07T04:18:28;10.70;;;6.88;;
76127;SDS011;64873;50.102;14.434;2023-05-07T04:20:54;9.55;;;6.07;;
76127;SDS011;64873;50.102;14.434;2023-05-07T04:23:20;9.80;;;5.55;;
76127;SDS011;64873;50.102;14.434;2023-05-07T04:25:48;12.15;;;7.50;;
76127;SDS011;64873;50.102;14.434;2023-05-07T04:28:13;9.85;;;5.93;;
76127;SDS011;64873;50.102;14.434;2023-05-07T04:30:39;11.18;;;7.03;;
76127;SDS011;64873;50.102;14.434;2023-05-07T04:33:07;12.05;;;7.43;;
76127;SDS011;64873;50.102;14.434;2023-05-07T04:35:33;9.40;;;5.82;;
76127;SDS011;64873;50.102;14.434;2023-05-07T04:37:58;9.25;;;6.10;;
76127;SDS011;64873;50.102;14.434;2023-05-07T04:40:24;12.50;;;7.57;;
76127;SDS011;64873;50.102;14.434;2023-05-07T04:42:50;10.70;;;7.28;;
76127;SDS011;64873;50.102;14.434;2023-05-07T04:45:16;11.07;;;7.47;;
76127;SDS011;64873;50.102;14.434;2023-05-07T04:47:41;11.05;;;7.78;;
76127;SDS011;64873;50.102;14.434;2023-05-07T04:50:07;11.65;;;6.70;;
76127;SDS011;64873;50.102;14.434;2023-05-07T04:52:34;11.65;;;7.13;;
76127;SDS011;64873;50.102;14.434;2023-05-07T04:55:00;9.88;;;6.57;;
76127;SDS011;64873;50.102;14.434;2023-05-07T04:57:26;12.60;;;7.60;;
76127;SDS011;64873;50.102;14.434;2023-05-07T04:59:52;10.10;;;6.70;;
76127;SDS011;64873;50.102;14.434;2023-05-07T05:02:18;11.48;;;6.68;;
76127;SDS011;64873;50.102;14.434;2023-05-07T05:04:43;12.65;;;7.35;;
76127;SDS011;64873;50.102;14.434;2023-05-07T05:07:09;9.77;;;5.95;;
76127;SDS011;64873;50.102;14.434;2023-05-07T05:09:35;10.63;;;6.22;;
76127;SDS011;64873;50.102;14.434;2023-05-07T05:12:01;10.82;;;7.15;;
76127;SDS011;64873;50.102;14.434;2023-05-07T05:14:32;9.93;;;6.55;;
76127;SDS011;64873;50.102;14.434;2023-05-07T05:16:58;10.05;;;6.60;;
76127;SDS011;64873;50.102;14.434;2023-05-07T05:19:26;11.38;;;6.57;;
76127;SDS011;64873;50.102;14.434;2023-05-07T05:21:57;8.85;;;5.63;;
76127;SDS011;64873;50.102;14.434;2023-05-07T05:24:23;9.60;;;6.20;;
76127;SDS011;64873;50.102;14.434;2023-05-07T05:26:49;10.18;;;6.40;;
76127;SDS011;64873;50.102;14.434;2023-05-07T05:29:14;10.43;;;6.07;;
76127;SDS011;64873;50.102;14.434;2023-05-07T05:31:43;9.75;;;5.47;;
76127;SDS011;64873;50.102;14.434;2023-05-07T05:34:08;10.00;;;6.30;;
76127;SDS011;64873;50.102;14.434;2023-05-07T05:36:34;9.23;;;5.75;;
76127;SDS011;64873;50.102;14.434;2023-05-07T05:39:03;9.60;;;6.55;;
76127;SDS011;64873;50.102;14.434;2023-05-07T05:41:29;11.23;;;5.60;;
76127;SDS011;64873;50.102;14.434;2023-05-07T05:43:55;11.00;;;6.45;;
76127;SDS011;64873;50.102;14.434;2023-05-07T05:46:21;10.10;;;5.75;;
76127;SDS011;64873;50.102;14.434;2023-05-07T05:48:47;10.52;;;6.25;;
76127;SDS011;64873;50.102;14.434;2023-05-07T05:51:15;10.13;;;6.20;;
76127;SDS011;64873;50.102;14.434;2023-05-07T05:53:44;8.10;;;5.03;;
76127;SDS011;64873;50.102;14.434;2023-05-07T05:56:15;9.60;;;5.28;;
76127;SDS011;64873;50.102;14.434;2023-05-07T05:58:41;10.02;;;5.80;;
76127;SDS011;64873;50.102;14.434;2023-05-07T06:01:07;6.85;;;4.47;;
76127;SDS011;64873;50.102;14.434;2023-05-07T06:03:32;7.88;;;4.82;;
76127;SDS011;64873;50.102;14.434;2023-05-07T06:05:58;7.50;;;4.85;;
76127;SDS011;64873;50.102;14.434;2023-05-07T06:08:33;6.70;;;4.32;;
76127;SDS011;64873;50.102;14.434;2023-05-07T06:10:58;7.05;;;4.20;;
76127;SDS011;64873;50.102;14.434;2023-05-07T06:13:25;9.68;;;4.55;;
76127;SDS011;64873;50.102;14.434;2023-05-07T06:15:50;6.43;;;4.15;;
76127;SDS011;64873;50.102;14.434;2023-05-07T06:18:16;6.85;;;4.20;;
76127;SDS011;64873;50.102;14.434;2023-05-07T06:20:41;7.72;;;4.82;;
76127;SDS011;64873;50.102;14.434;2023-05-07T06:23:09;7.25;;;4.15;;
76127;SDS011;64873;50.102;14.434;2023-05-07T06:25:35;7.43;;;4.75;;
76127;SDS011;64873;50.102;14.434;2023-05-07T06:28:01;7.18;;;4.35;;
76127;SDS011;64873;50.102;14.434;2023-05-07T06:30:30;5.97;;;4.10;;
76127;SDS011;64873;50.102;14.434;2023-05-07T06:32:55;6.93;;;4.40;;
76127;SDS011;64873;50.102;14.434;2023-05-07T06:35:21;6.97;;;4.32;;
76127;SDS011;64873;50.102;14.434;2023-05-07T06:37:47;6.53;;;4.15;;
76127;SDS011;64873;50.102;14.434;2023-05-07T06:40:18;7.30;;;4.35;;
76127;SDS011;64873;50.102;14.434;2023-05-07T06:42:44;6.18;;;4.18;;
76127;SDS011;64873;50.102;14.434;2023-05-07T06:45:09;6.18;;;4.13;;
76127;SDS011;64873;50.102;14.434;2023-05-07T06:47:35;5.55;;;3.92;;
76127;SDS011;64873;50.102;14.434;2023-05-07T06:50:01;8.15;;;4.85;;
76127;SDS011;64873;50.102;14.434;2023-05-07T06:52:26;7.18;;;3.97;;
76127;SDS011;64873;50.102;14.434;2023-05-07T06:54:52;6.00;;;4.32;;
76127;SDS011;64873;50.102;14.434;2023-05-07T06:57:18;6.38;;;4.63;;
76127;SDS011;64873;50.102;14.434;2023-05-07T06:59:44;6.22;;;3.55;;
76127;SDS011;64873;50.102;14.434;2023-05-07T07:02:09;7.25;;;4.00;;
76127;SDS011;64873;50.102;14.434;2023-05-07T07:04:35;7.70;;;4.25;;
76127;SDS011;64873;50.102;14.434;2023-05-07T07:07:01;3.40;;;2.15;;
76127;SDS011;64873;50.102;14.434;2023-05-07T07:09:26;5.32;;;3.70;;
76127;SDS011;64873;50.102;14.434;2023-05-07T07:11:52;4.55;;;3.40;;
76127;SDS011;64873;50.102;14.434;2023-05-07T07:14:17;4.50;;;2.90;;
76127;SDS011;64873;50.102;14.434;2023-05-07T07:16:48;4.20;;;2.90;;
76127;SDS011;64873;50.102;14.434;2023-05-07T07:19:14;4.63;;;3.17;;
76127;SDS011;64873;50.102;14.434;2023-05-07T07:21:40;4.78;;;2.65;;
76127;SDS011;64873;50.102;14.434;2023-05-07T07:24:07;4.35;;;3.20;;
76127;SDS011;64873;50.102;14.434;2023-05-07T07:26:32;6.32;;;3.65;;
76127;SDS011;64873;50.102;14.434;2023-05-07T07:28:58;4.45;;;3.30;;
76127;SDS011;64873;50.102;14.434;2023-05-07T07:31:26;4.30;;;2.92;;
76127;SDS011;64873;50.102;14.434;2023-05-07T07:33:51;5.15;;;3.15;;
76127;SDS011;64873;50.102;14.434;2023-05-07T07:36:17;4.90;;;3.35;;
76127;SDS011;64873;50.102;14.434;2023-05-07T07:38:43;6.03;;;3.35;;
76127;SDS011;64873;50.102;14.434;2023-05-07T07:41:08;5.00;;;3.40;;
76127;SDS011;64873;50.102;14.434;2023-05-07T07:43:34;6.63;;;4.07;;
76127;SDS011;64873;50.102;14.434;2023-05-07T07:46:00;5.63;;;4.13;;
76127;SDS011;64873;50.102;14.434;2023-05-07T07:48:26;4.82;;;3.40;;
76127;SDS011;64873;50.102;14.434;2023-05-07T07:50:55;4.97;;;3.40;;
76127;SDS011;64873;50.102;14.434;2023-05-07T07:53:20;6.45;;;3.78;;
76127;SDS011;64873;50.102;14.434;2023-05-07T07:55:49;5.60;;;3.67;;
76127;SDS011;64873;50.102;14.434;2023-05-07T07:58:14;5.85;;;3.80;;
76127;SDS011;64873;50.102;14.434;2023-05-07T08:00:40;5.57;;;3.97;;
76127;SDS011;64873;50.102;14.434;2023-05-07T08:03:08;6.07;;;4.13;;
76127;SDS011;64873;50.102;14.434;2023-05-07T08:05:35;7.85;;;3.83;;
76127;SDS011;64873;50.102;14.434;2023-05-07T08:08:04;6.03;;;4.05;;
76127;SDS011;64873;50.102;14.434;2023-05-07T08:10:33;6.65;;;3.95;;
76127;SDS011;64873;50.102;14.434;2023-05-07T08:12:59;6.82;;;4.47;;
76127;SDS011;64873;50.102;14.434;2023-05-07T08:15:25;7.88;;;4.20;;
76127;SDS011;64873;50.102;14.434;2023-05-07T08:17:51;6.38;;;4.50;;
76127;SDS011;64873;50.102;14.434;2023-05-07T08:20:16;6.82;;;4.28;;
76127;SDS011;64873;50.102;14.434;2023-05-07T08:22:42;5.85;;;4.10;;
76127;SDS011;64873;50.102;14.434;2023-05-07T08:25:08;6.22;;;4.03;;
76127;SDS011;64873;50.102;14.434;2023-05-07T08:27:34;6.60;;;4.30;;
76127;SDS011;64873;50.102;14.434;2023-05-07T08:29:59;8.35;;;4.32;;
76127;SDS011;64873;50.102;14.434;2023-05-07T08:32:27;5.85;;;4.45;;
76127;SDS011;64873;50.102;14.434;2023-05-07T08:34:53;7.15;;;4.68;;
76127;SDS011;64873;50.102;14.434;2023-05-07T08:37:21;6.32;;;4.40;;
76127;SDS011;64873;50.102;14.434;2023-05-07T08:39:47;7.82;;;5.40;;
76127;SDS011;64873;50.102;14.434;2023-05-07T08:42:12;8.55;;;5.13;;
76127;SDS011;64873;50.102;14.434;2023-05-07T08:44:41;9.25;;;4.70;;
76127;SDS011;64873;50.102;14.434;2023-05-07T08:47:13;6.50;;;4.40;;
76127;SDS011;64873;50.102;14.434;2023-05-07T08:49:39;6.78;;;4.30;;
76127;SDS011;64873;50.102;14.434;2023-05-07T08:52:05;6.00;;;3.72;;
76127;SDS011;64873;50.102;14.434;2023-05-07T08:54:31;7.22;;;4.75;;
76127;SDS011;64873;50.102;14.434;2023-05-07T08:56:58;6.90;;;4.43;;
76127;SDS011;64873;50.102;14.434;2023-05-07T08:59:24;6.13;;;4.07;;
76127;SDS011;64873;50.102;14.434;2023-05-07T09:01:50;6.22;;;4.50;;
76127;SDS011;64873;50.102;14.434;2023-05-07T09:04:19;6.38;;;4.00;;
76127;SDS011;64873;50.102;14.434;2023-05-07T09:06:47;5.30;;;3.80;;
76127;SDS011;64873;50.102;14.434;2023-05-07T09:09:16;5.75;;;3.92;;
76127;SDS011;64873;50.102;14.434;2023-05-07T09:11:43;7.85;;;4.47;;
76127;SDS011;64873;50.102;14.434;2023-05-07T09:14:09;6.00;;;4.10;;
76127;SDS011;64873;50.102;14.434;2023-05-07T09:16:38;5.70;;;4.05;;
76127;SDS011;64873;50.102;14.434;2023-05-07T09:19:04;5.93;;;4.00;;
76127;SDS011;64873;50.102;14.434;2023-05-07T09:21:35;5.38;;;3.95;;
76127;SDS011;64873;50.102;14.434;2023-05-07T09:24:01;6.32;;;4.10;;
76127;SDS011;64873;50.102;14.434;2023-05-07T09:26:26;6.63;;;4.72;;
76127;SDS011;64873;50.102;14.434;2023-05-07T09:28:53;6.70;;;4.22;;
76127;SDS011;64873;50.102;14.434;2023-05-07T09:31:19;6.20;;;4.40;;
76127;SDS011;64873;50.102;14.434;2023-05-07T09:33:45;7.03;;;4.88;;
76127;SDS011;64873;50.102;14.434;2023-05-07T09:36:10;5.95;;;3.95;;
76127;SDS011;64873;50.102;14.434;2023-05-07T09:38:36;10.35;;;6.88;;
76127;SDS011;64873;50.102;14.434;2023-05-07T09:41:04;10.40;;;4.78;;
76127;SDS011;64873;50.102;14.434;2023-05-07T09:43:34;6.97;;;4.32;;
76127;SDS011;64873;50.102;14.434;2023-05-07T09:46:19;6.00;;;4.20;;
76127;SDS011;64873;50.102;14.434;2023-05-07T09:48:50;5.35;;;4.10;;
76127;SDS011;64873;50.102;14.434;2023-05-07T09:51:30;6.55;;;3.97;;
76127;SDS011;64873;50.102;14.434;2023-05-07T09:54:08;6.55;;;4.28;;
76127;SDS011;64873;50.102;14.434;2023-05-07T09:56:37;6.85;;;4.25;;
76127;SDS011;64873;50.102;14.434;2023-05-07T09:59:06;8.13;;;4.57;;
76127;SDS011;64873;50.102;14.434;2023-05-07T10:01:33;8.75;;;4.53;;
76127;SDS011;64873;50.102;14.434;2023-05-07T10:04:02;5.63;;;4.32;;
76127;SDS011;64873;50.102;14.434;2023-05-07T10:06:33;6.63;;;4.47;;
76127;SDS011;64873;50.102;14.434;2023-05-07T10:09:00;6.82;;;4.68;;
76127;SDS011;64873;50.102;14.434;2023-05-07T10:11:28;6.13;;;4.00;;
76127;SDS011;64873;50.102;14.434;2023-05-07T10:13:54;6.60;;;4.63;;
76127;SDS011;64873;50.102;14.434;2023-05-07T10:16:23;6.10;;;4.38;;
76127;SDS011;64873;50.102;14.434;2023-05-07T10:18:50;5.65;;;4.03;;
76127;SDS011;64873;50.102;14.434;2023-05-07T10:21:17;6.90;;;4.60;;
76127;SDS011;64873;50.102;14.434;2023-05-07T10:23:51;9.57;;;4.38;;
76127;SDS011;64873;50.102;14.434;2023-05-07T10:26:22;6.93;;;4.63;;
76127;SDS011;64873;50.102;14.434;2023-05-07T10:28:52;6.90;;;4.68;;
76127;SDS011;64873;50.102;14.434;2023-05-07T10:34:26;5.53;;;4.07;;
76127;SDS011;64873;50.102;14.434;2023-05-07T10:37:00;6.65;;;4.50;;
76127;SDS011;64873;50.102;14.434;2023-05-07T10:39:28;5.35;;;3.75;;
76127;SDS011;64873;50.102;14.434;2023-05-07T10:41:54;7.05;;;4.45;;
76127;SDS011;64873;50.102;14.434;2023-05-07T10:44:26;5.53;;;3.95;;
76127;SDS011;64873;50.102;14.434;2023-05-07T10:47:07;5.70;;;3.80;;
76127;SDS011;64873;50.102;14.434;2023-05-07T10:49:35;6.18;;;3.97;;
76127;SDS011;64873;50.102;14.434;2023-05-07T10:52:14;6.93;;;4.15;;
76127;SDS011;64873;50.102;14.434;2023-05-07T10:54:44;6.45;;;3.95;;
76127;SDS011;64873;50.102;14.434;2023-05-07T10:59:56;7.03;;;4.65;;
76127;SDS011;64873;50.102;14.434;2023-05-07T11:02:22;6.35;;;3.92;;
76127;SDS011;64873;50.102;14.434;2023-05-07T11:07:54;7.00;;;4.85;;
76127;SDS011;64873;50.102;14.434;2023-05-07T11:13:15;7.13;;;4.10;;
76127;SDS011;64873;50.102;14.434;2023-05-07T11:15:45;6.70;;;4.53;;
76127;SDS011;64873;50.102;14.434;2023-05-07T11:18:14;7.53;;;4.75;;
76127;SDS011;64873;50.102;14.434;2023-05-07T11:26:02;5.80;;;4.22;;
76127;SDS011;64873;50.102;14.434;2023-05-07T11:28:35;8.93;;;5.43;;
76127;SDS011;64873;50.102;14.434;2023-05-07T11:31:03;6.80;;;5.05;;
76127;SDS011;64873;50.102;14.434;2023-05-07T11:33:29;6.65;;;4.80;;
76127;SDS011;64873;50.102;14.434;2023-05-07T11:35:55;6.82;;;4.88;;
76127;SDS011;64873;50.102;14.434;2023-05-07T11:38:22;7.63;;;4.88;;
76127;SDS011;64873;50.102;14.434;2023-05-07T11:40:51;8.63;;;5.15;;
76127;SDS011;64873;50.102;14.434;2023-05-07T11:43:17;7.75;;;5.35;;
76127;SDS011;64873;50.102;14.434;2023-05-07T11:45:44;7.38;;;4.97;;
76127;SDS011;64873;50.102;14.434;2023-05-07T11:48:13;7.70;;;5.65;;
76127;SDS011;64873;50.102;14.434;2023-05-07T11:50:52;11.10;;;5.65;;
76127;SDS011;64873;50.102;14.434;2023-05-07T11:53:19;8.10;;;6.10;;
76127;SDS011;64873;50.102;14.434;2023-05-07T11:55:51;10.30;;;5.45;;
76127;SDS011;64873;50.102;14.434;2023-05-07T11:58:20;9.20;;;6.55;;
76127;SDS011;64873;50.102;14.434;2023-05-07T12:00:48;9.55;;;6.10;;
76127;SDS011;64873;50.102;14.434;2023-05-07T12:03:17;9.15;;;5.68;;
76127;SDS011;64873;50.102;14.434;2023-05-07T12:05:46;9.95;;;5.40;;
76127;SDS011;64873;50.102;14.434;2023-05-07T12:08:16;8.65;;;5.50;;
76127;SDS011;64873;50.102;14.434;2023-05-07T12:10:43;5.88;;;4.32;;
76127;SDS011;64873;50.102;14.434;2023-05-07T12:13:16;6.72;;;4.72;;
76127;SDS011;64873;50.102;14.434;2023-05-07T12:15:52;8.90;;;5.05;;
76127;SDS011;64873;50.102;14.434;2023-05-07T12:18:18;5.07;;;3.92;;
76127;SDS011;64873;50.102;14.434;2023-05-07T12:20:44;12.70;;;9.15;;
76127;SDS011;64873;50.102;14.434;2023-05-07T12:23:10;5.75;;;4.45;;
76127;SDS011;64873;50.102;14.434;2023-05-07T12:25:37;6.18;;;4.20;;
76127;SDS011;64873;50.102;14.434;2023-05-07T12:28:04;10.65;;;5.25;;
76127;SDS011;64873;50.102;14.434;2023-05-07T12:30:36;6.10;;;4.47;;
76127;SDS011;64873;50.102;14.434;2023-05-07T12:33:03;5.10;;;4.15;;
76127;SDS011;64873;50.102;14.434;2023-05-07T12:35:35;5.97;;;4.00;;
76127;SDS011;64873;50.102;14.434;2023-05-07T12:38:07;4.82;;;3.67;;
76127;SDS011;64873;50.102;14.434;2023-05-07T12:43:03;4.70;;;3.80;;
76127;SDS011;64873;50.102;14.434;2023-05-07T12:45:28;5.47;;;3.70;;
76127;SDS011;64873;50.102;14.434;2023-05-07T12:48:00;7.15;;;3.95;;
76127;SDS011;64873;50.102;14.434;2023-05-07T12:50:30;4.68;;;3.35;;
76127;SDS011;64873;50.102;14.434;2023-05-07T12:52:57;4.32;;;3.42;;
76127;SDS011;64873;50.102;14.434;2023-05-07T12:55:23;4.95;;;3.75;;
76127;SDS011;64873;50.102;14.434;2023-05-07T12:57:49;5.80;;;4.22;;
76127;SDS011;64873;50.102;14.434;2023-05-07T13:00:17;6.25;;;4.03;;
76127;SDS011;64873;50.102;14.434;2023-05-07T13:02:58;4.60;;;3.75;;
76127;SDS011;64873;50.102;14.434;2023-05-07T13:05:23;5.80;;;4.00;;
76127;SDS011;64873;50.102;14.434;2023-05-07T13:07:55;4.13;;;3.38;;
76127;SDS011;64873;50.102;14.434;2023-05-07T13:10:25;5.38;;;3.65;;
76127;SDS011;64873;50.102;14.434;2023-05-07T13:12:51;4.40;;;3.80;;
76127;SDS011;64873;50.102;14.434;2023-05-07T13:15:17;5.80;;;4.13;;
76127;SDS011;64873;50.102;14.434;2023-05-07T13:17:43;6.80;;;4.38;;
76127;SDS011;64873;50.102;14.434;2023-05-07T13:20:09;4.72;;;3.58;;
76127;SDS011;64873;50.102;14.434;2023-05-07T13:22:36;4.90;;;3.70;;
76127;SDS011;64873;50.102;14.434;2023-05-07T13:25:02;6.20;;;4.03;;
76127;SDS011;64873;50.102;14.434;2023-05-07T13:27:28;7.95;;;4.50;;
76127;SDS011;64873;50.102;14.434;2023-05-07T13:29:55;5.95;;;3.63;;
76127;SDS011;64873;50.102;14.434;2023-05-07T13:32:21;4.85;;;3.90;;
76127;SDS011;64873;50.102;14.434;2023-05-07T13:34:47;4.82;;;3.35;;
76127;SDS011;64873;50.102;14.434;2023-05-07T13:37:13;5.45;;;3.58;;
76127;SDS011;64873;50.102;14.434;2023-05-07T13:39:41;5.78;;;3.55;;
76127;SDS011;64873;50.102;14.434;2023-05-07T13:42:07;6.18;;;3.95;;
76127;SDS011;64873;50.102;14.434;2023-05-07T13:44:33;5.18;;;3.60;;
76127;SDS011;64873;50.102;14.434;2023-05-07T13:46:58;4.78;;;3.53;;
76127;SDS011;64873;50.102;14.434;2023-05-07T13:49:24;4.93;;;3.55;;
76127;SDS011;64873;50.102;14.434;2023-05-07T13:51:49;6.28;;;3.65;;
76127;SDS011;64873;50.102;14.434;2023-05-07T13:54:15;6.95;;;3.92;;
76127;SDS011;64873;50.102;14.434;2023-05-07T13:56:41;5.15;;;3.92;;
76127;SDS011;64873;50.102;14.434;2023-05-07T13:59:06;6.15;;;3.83;;
76127;SDS011;64873;50.102;14.434;2023-05-07T14:01:32;4.65;;;3.15;;
76127;SDS011;64873;50.102;14.434;2023-05-07T14:03:57;15.60;;;3.58;;
76127;SDS011;64873;50.102;14.434;2023-05-07T14:06:24;4.60;;;3.28;;
76127;SDS011;64873;50.102;14.434;2023-05-07T14:08:50;4.53;;;3.10;;
76127;SDS011;64873;50.102;14.434;2023-05-07T14:11:18;4.70;;;3.28;;
76127;SDS011;64873;50.102;14.434;2023-05-07T14:13:43;5.68;;;3.10;;
76127;SDS011;64873;50.102;14.434;2023-05-07T14:16:12;5.18;;;3.50;;
76127;SDS011;64873;50.102;14.434;2023-05-07T14:18:38;3.83;;;2.65;;
76127;SDS011;64873;50.102;14.434;2023-05-07T14:21:04;4.97;;;3.10;;
76127;SDS011;64873;50.102;14.434;2023-05-07T14:23:31;4.90;;;3.95;;
76127;SDS011;64873;50.102;14.434;2023-05-07T14:25:56;5.85;;;4.38;;
76127;SDS011;64873;50.102;14.434;2023-05-07T14:28:23;5.50;;;4.72;;
76127;SDS011;64873;50.102;14.434;2023-05-07T14:30:48;7.15;;;4.53;;
76127;SDS011;64873;50.102;14.434;2023-05-07T14:33:14;5.28;;;4.28;;
76127;SDS011;64873;50.102;14.434;2023-05-07T14:35:39;6.20;;;4.28;;
76127;SDS011;64873;50.102;14.434;2023-05-07T14:38:05;5.50;;;4.50;;
76127;SDS011;64873;50.102;14.434;2023-05-07T14:40:31;7.50;;;4.50;;
76127;SDS011;64873;50.102;14.434;2023-05-07T14:42:56;5.78;;;4.53;;
76127;SDS011;64873;50.102;14.434;2023-05-07T14:45:22;9.32;;;4.80;;